Time;durP1;ratioP1;P1;durP2;ratioP2;P2;SDS_P1;SDS_P2;PMS_P1;PMS_P2;Temp;Humidity;BMP_temperature;BMP_pressure;BME280_temperature;BME280_humidity;BME280_pressure;Samples;Min_cycle;Max_cycle;Signal;HPM_P1;HPM_P2
2022/09/24 00:00:53;;;;;;;;;;;;;;;;;;4934009;29;20018;-87
2022/09/24 00:03:19;;;;;;;;;;;;;;;;;;4922213;29;19919;-88
2022/09/24 00:05:44;;;;;;;;;;;;;;;;;;4923161;29;20013;-87
2022/09/24 00:08:09;;;;;;;;;;;;;;;;;;4921310;29;19951;-88
2022/09/24 00:10:34;;;;;;;;;;;;;;;;;;4928880;29;19938;-87
2022/09/24 00:13:00;;;;;;;;;;;;;;;;;;4922612;29;20284;-88
2022/09/24 00:15:25;;;;;;;;;;;;;;;;;;4929133;29;19922;-88
2022/09/24 00:17:50;;;;;;;;;;;;;;;;;;4924722;29;20017;-88
2022/09/24 00:20:15;;;;;;;;;;;;;;;;;;4932059;29;20296;-87
2022/09/24 00:22:40;;;;;;;;;;;;;;;;;;4914894;29;19930;-87
2022/09/24 00:27:49;;;;;;;;;;;;;;;;;;4925265;29;19922;-87
2022/09/24 00:30:14;;;;;;;;;;;;;;;;;;4926213;29;19915;-88
2022/09/24 00:32:40;;;;;;;;;;;;;;;;;;4923733;29;20397;-88
2022/09/24 00:35:05;;;;;;;;;;;;;;;;;;4925618;29;19915;-88
2022/09/24 00:37:30;;;;;;;;;;;;;;;;;;4923748;29;20297;-87
2022/09/24 00:39:55;;;;;;;;;;;;;;;;;;4932548;29;19951;-87
2022/09/24 00:42:21;;;;;;;;;;;;;;;;;;4924736;29;19938;-88
2022/09/24 00:44:47;;;;;;;;;;;;;;;;;;4934572;29;19919;-87
2022/09/24 00:47:12;;;;;;;;;;;;;;;;;;4927269;29;19919;-87
2022/09/24 00:49:38;;;;;;;;;;;;;;;;;;4928567;29;20346;-87
2022/09/24 00:52:03;;;;;;;;;;;;;;;;;;4926042;28;19921;-86
2022/09/24 00:54:28;;;;;;;;;;;;;;;;;;4925581;29;19922;-88
2022/09/24 00:56:53;;;;;;;;;;;;;;;;;;4926625;29;20423;-87
2022/09/24 00:59:18;;;;;;;;;;;;;;;;;;4928152;28;20026;-87
2022/09/24 01:01:44;;;;;;;;;;;;;;;;;;4928552;29;20005;-86
2022/09/24 01:04:09;;;;;;;;;;;;;;;;;;4924192;29;19950;-88
2022/09/24 01:06:34;;;;;;;;;;;;;;;;;;4924587;29;19925;-88
2022/09/24 01:08:59;;;;;;;;;;;;;;;;;;4926344;29;20384;-87
2022/09/24 01:11:24;;;;;;;;;;;;;;;;;;4928274;29;20006;-87
2022/09/24 01:13:50;;;;;;;;;;;;;;;;;;4926246;29;20258;-88
2022/09/24 01:16:15;;;;;;;;;;;;;;;;;;4929863;29;19922;-87
2022/09/24 01:18:40;;;;;;;;;;;;;;;;;;4927845;29;20387;-87
2022/09/24 01:21:06;;;;;;;;;;;;;;;;;;4929098;29;20381;-87
2022/09/24 01:23:31;;;;;;;;;;;;;;;;;;4928304;29;19915;-87
2022/09/24 01:25:58;;;;;;;;;;;;;;;;;;4932594;29;20175;-87
2022/09/24 01:28:24;;;;;;;;;;;;;;;;;;4928726;29;20002;-87
2022/09/24 01:30:49;;;;;;;;;;;;;;;;;;4929835;29;19998;-88
2022/09/24 01:33:14;;;;;;;;;;;;;;;;;;4926567;29;19963;-88
2022/09/24 01:35:39;;;;;;;;;;;;;;;;;;4925427;29;20046;-87
2022/09/24 01:38:04;;;;;;;;;;;;;;;;;;4931583;29;20365;-87
2022/09/24 01:40:29;;;;;;;;;;;;;;;;;;4935092;29;19915;-88
2022/09/24 01:42:55;;;;;;;;;;;;;;;;;;4927588;29;19930;-88
2022/09/24 01:45:20;;;;;;;;;;;;;;;;;;4927973;29;19922;-87
2022/09/24 01:47:46;;;;;;;;;;;;;;;;;;4930981;29;19926;-87
2022/09/24 01:50:11;;;;;;;;;;;;;;;;;;4929785;29;19915;-88
2022/09/24 01:52:36;;;;;;;;;;;;;;;;;;4928991;29;19974;-87
2022/09/24 01:55:01;;;;;;;;;;;;;;;;;;4926353;29;20393;-88
2022/09/24 01:57:26;;;;;;;;;;;;;;;;;;4910680;29;20002;-87
2022/09/24 01:59:54;;;;;;;;;;;;;;;;;;4927269;29;20282;-87
2022/09/24 02:02:19;;;;;;;;;;;;;;;;;;4930716;29;20381;-87
2022/09/24 02:04:44;;;;;;;;;;;;;;;;;;4928564;29;19915;-88
2022/09/24 02:07:12;;;;;;;;;;;;;;;;;;4922117;29;20330;-87
2022/09/24 02:09:37;;;;;;;;;;;;;;;;;;4924359;29;19962;-88
2022/09/24 02:12:02;;;;;;;;;;;;;;;;;;4925510;29;19958;-88
2022/09/24 02:14:27;;;;;;;;;;;;;;;;;;4925306;29;20500;-88
2022/09/24 02:16:52;;;;;;;;;;;;;;;;;;4923656;29;19954;-88
2022/09/24 02:19:18;;;;;;;;;;;;;;;;;;4922101;29;19922;-88
2022/09/24 02:21:43;;;;;;;;;;;;;;;;;;4918483;29;19915;-88
2022/09/24 02:24:08;;;;;;;;;;;;;;;;;;4923588;29;19954;-87
2022/09/24 02:26:33;;;;;;;;;;;;;;;;;;4921899;29;20452;-87
2022/09/24 02:28:58;;;;;;;;;;;;;;;;;;4926538;29;19914;-88
2022/09/24 02:31:26;;;;;;;;;;;;;;;;;;4928394;29;19943;-88
2022/09/24 02:36:35;;;;;;;;;;;;;;;;;;4925087;29;19925;-87
2022/09/24 02:39:00;;;;;;;;;;;;;;;;;;4926543;29;19919;-88
2022/09/24 02:41:25;;;;;;;;;;;;;;;;;;4923424;29;19922;-88
2022/09/24 02:43:50;;;;;;;;;;;;;;;;;;4925425;29;19915;-87
2022/09/24 02:46:15;;;;;;;;;;;;;;;;;;4926044;29;20400;-88
2022/09/24 02:48:40;;;;;;;;;;;;;;;;;;4923820;29;19916;-87
2022/09/24 02:51:06;;;;;;;;;;;;;;;;;;4921373;29;20388;-87
2022/09/24 02:53:31;;;;;;;;;;;;;;;;;;4926234;29;19919;-88
2022/09/24 02:55:57;;;;;;;;;;;;;;;;;;4926187;29;20094;-88
2022/09/24 02:58:23;;;;;;;;;;;;;;;;;;4926356;29;20262;-87
2022/09/24 03:00:49;;;;;;;;;;;;;;;;;;4924508;29;20349;-88
2022/09/24 03:03:14;;;;;;;;;;;;;;;;;;4921420;29;19975;-88
2022/09/24 03:05:39;;;;;;;;;;;;;;;;;;4921666;29;20006;-87
2022/09/24 03:08:06;;;;;;;;;;;;;;;;;;4928727;29;19983;-88
2022/09/24 03:10:31;;;;;;;;;;;;;;;;;;4928020;29;19915;-88
2022/09/24 03:12:59;;;;;;;;;;;;;;;;;;4927013;29;19915;-88
2022/09/24 03:15:24;;;;;;;;;;;;;;;;;;4921566;29;19915;-88
2022/09/24 03:17:50;;;;;;;;;;;;;;;;;;4928151;29;20432;-88
2022/09/24 03:20:15;;;;;;;;;;;;;;;;;;4924073;29;19915;-87
2022/09/24 03:22:41;;;;;;;;;;;;;;;;;;4923931;29;19979;-87
2022/09/24 03:25:06;;;;;;;;;;;;;;;;;;4926683;29;20381;-88
2022/09/24 03:27:31;;;;;;;;;;;;;;;;;;4923100;29;19919;-87
2022/09/24 03:32:40;;;;;;;;;;;;;;;;;;4923990;29;19943;-88
2022/09/24 03:35:05;;;;;;;;;;;;;;;;;;4911386;29;20376;-88
2022/09/24 03:37:32;;;;;;;;;;;;;;;;;;4927303;29;19935;-88
2022/09/24 03:39:57;;;;;;;;;;;;;;;;;;4930053;29;19983;-87
2022/09/24 03:42:22;;;;;;;;;;;;;;;;;;4925521;29;19915;-88
2022/09/24 03:44:47;;;;;;;;;;;;;;;;;;4923400;29;20018;-87
2022/09/24 03:47:12;;;;;;;;;;;;;;;;;;4922991;29;19922;-88
2022/09/24 03:49:38;;;;;;;;;;;;;;;;;;4927608;29;19919;-88
2022/09/24 03:52:03;;;;;;;;;;;;;;;;;;4925294;29;19914;-88
2022/09/24 03:54:28;;;;;;;;;;;;;;;;;;4926957;29;19958;-87
2022/09/24 03:56:53;;;;;;;;;;;;;;;;;;4926519;29;19915;-87
2022/09/24 03:59:18;;;;;;;;;;;;;;;;;;4912958;29;19965;-88
2022/09/24 04:01:44;;;;;;;;;;;;;;;;;;4924686;29;19929;-86
2022/09/24 04:04:15;;;;;;;;;;;;;;;;;;4925338;29;19993;-88
2022/09/24 04:06:40;;;;;;;;;;;;;;;;;;4928029;29;19923;-87
2022/09/24 04:09:05;;;;;;;;;;;;;;;;;;4927259;28;19969;-87
2022/09/24 04:11:33;;;;;;;;;;;;;;;;;;4924554;29;19930;-88
2022/09/24 04:13:58;;;;;;;;;;;;;;;;;;4926115;29;19915;-88
2022/09/24 04:16:23;;;;;;;;;;;;;;;;;;4910590;29;19925;-88
2022/09/24 04:18:49;;;;;;;;;;;;;;;;;;4925145;29;20010;-88
2022/09/24 04:21:14;;;;;;;;;;;;;;;;;;4927926;29;20385;-88
2022/09/24 04:23:39;;;;;;;;;;;;;;;;;;4908004;29;20452;-88
2022/09/24 04:26:04;;;;;;;;;;;;;;;;;;4922497;29;19921;-88
2022/09/24 04:28:33;;;;;;;;;;;;;;;;;;4903278;29;19914;-87
2022/09/24 04:30:58;;;;;;;;;;;;;;;;;;4928274;29;20429;-88
2022/09/24 04:33:23;;;;;;;;;;;;;;;;;;4930665;29;19926;-86
2022/09/24 04:35:48;;;;;;;;;;;;;;;;;;4940550;29;19915;-86
2022/09/24 04:38:14;;;;;;;;;;;;;;;;;;4935006;29;19933;-85
2022/09/24 04:40:39;;;;;;;;;;;;;;;;;;4933417;29;20008;-86
2022/09/24 04:43:04;;;;;;;;;;;;;;;;;;4933066;29;19922;-86
2022/09/24 04:45:30;;;;;;;;;;;;;;;;;;4937090;29;19914;-86
2022/09/24 04:47:56;;;;;;;;;;;;;;;;;;4941609;29;19915;-86
2022/09/24 04:50:21;;;;;;;;;;;;;;;;;;4934001;29;19922;-86
2022/09/24 04:52:46;;;;;;;;;;;;;;;;;;4933552;29;19915;-87
2022/09/24 04:55:11;;;;;;;;;;;;;;;;;;4931726;29;20053;-86
2022/09/24 04:57:36;;;;;;;;;;;;;;;;;;4934471;29;20006;-86
2022/09/24 05:00:02;;;;;;;;;;;;;;;;;;4937444;28;19934;-86
2022/09/24 05:02:27;;;;;;;;;;;;;;;;;;4933174;29;19929;-86
2022/09/24 05:04:53;;;;;;;;;;;;;;;;;;4934735;29;20388;-87
2022/09/24 05:07:18;;;;;;;;;;;;;;;;;;4917998;23;19999;-87
2022/09/24 05:09:43;;;;;;;;;;;;;;;;;;4914111;29;19919;-86
2022/09/24 05:12:08;;;;;;;;;;;;;;;;;;4915680;29;19974;-86
2022/09/24 05:14:33;;;;;;;;;;;;;;;;;;4913827;29;19915;-86
2022/09/24 05:16:59;;;;;;;;;;;;;;;;;;4920474;29;19919;-86
2022/09/24 05:19:24;;;;;;;;;;;;;;;;;;4909324;29;19945;-87
2022/09/24 05:21:49;;;;;;;;;;;;;;;;;;4910735;29;20011;-87
2022/09/24 05:24:14;;;;;;;;;;;;;;;;;;4913048;29;20128;-86
2022/09/24 05:29:23;;;;;;;;;;;;;;;;;;4908524;29;19922;-86
2022/09/24 05:31:49;;;;;;;;;;;;;;;;;;4911620;29;19915;-86
2022/09/24 05:34:14;;;;;;;;;;;;;;;;;;4908013;29;20300;-87
2022/09/24 05:36:39;;;;;;;;;;;;;;;;;;4906580;29;19912;-87
2022/09/24 05:39:04;;;;;;;;;;;;;;;;;;4909681;29;19923;-87
2022/09/24 05:41:29;;;;;;;;;;;;;;;;;;4916961;29;19930;-86
2022/09/24 05:43:55;;;;;;;;;;;;;;;;;;4911919;29;19922;-87
2022/09/24 05:46:21;;;;;;;;;;;;;;;;;;4909805;29;20006;-87
2022/09/24 05:48:46;;;;;;;;;;;;;;;;;;4903976;29;19959;-87
2022/09/24 05:51:11;;;;;;;;;;;;;;;;;;4910579;29;19919;-87
2022/09/24 05:53:36;;;;;;;;;;;;;;;;;;4907497;29;19919;-86
2022/09/24 05:56:01;;;;;;;;;;;;;;;;;;4911207;29;19922;-86
2022/09/24 05:58:27;;;;;;;;;;;;;;;;;;4911128;29;19919;-86
2022/09/24 06:00:52;;;;;;;;;;;;;;;;;;4910074;29;19978;-87
2022/09/24 06:03:19;;;;;;;;;;;;;;;;;;4909687;29;20308;-87
2022/09/24 06:05:45;;;;;;;;;;;;;;;;;;4918104;29;19921;-87
2022/09/24 06:08:10;;;;;;;;;;;;;;;;;;4914568;29;20392;-87
2022/09/24 06:10:35;;;;;;;;;;;;;;;;;;4907844;29;20006;-87
2022/09/24 06:13:01;;;;;;;;;;;;;;;;;;4913148;29;21604;-87
2022/09/24 06:15:26;;;;;;;;;;;;;;;;;;4912639;29;20270;-87
2022/09/24 06:17:51;;;;;;;;;;;;;;;;;;4913467;29;19934;-86
2022/09/24 06:20:16;;;;;;;;;;;;;;;;;;4910577;29;19923;-87
2022/09/24 06:22:41;;;;;;;;;;;;;;;;;;4915311;29;20297;-87
2022/09/24 06:25:06;;;;;;;;;;;;;;;;;;4908878;29;19975;-87
2022/09/24 06:27:32;;;;;;;;;;;;;;;;;;4912861;29;20250;-87
2022/09/24 06:29:57;;;;;;;;;;;;;;;;;;4907169;29;19931;-87
2022/09/24 06:32:22;;;;;;;;;;;;;;;;;;4906810;29;19958;-87
2022/09/24 06:34:47;;;;;;;;;;;;;;;;;;4911483;29;19919;-87
2022/09/24 06:37:13;;;;;;;;;;;;;;;;;;4910767;29;19974;-87
2022/09/24 06:39:38;;;;;;;;;;;;;;;;;;4911985;29;20296;-87
2022/09/24 06:42:03;;;;;;;;;;;;;;;;;;4913926;29;19919;-87
2022/09/24 06:44:28;;;;;;;;;;;;;;;;;;4907318;29;19915;-87
2022/09/24 06:46:53;;;;;;;;;;;;;;;;;;4909864;29;20342;-87
2022/09/24 06:49:18;;;;;;;;;;;;;;;;;;4906682;29;19927;-87
2022/09/24 06:51:44;;;;;;;;;;;;;;;;;;4910974;29;19919;-87
2022/09/24 06:54:09;;;;;;;;;;;;;;;;;;4912887;29;19919;-87
2022/09/24 06:56:34;;;;;;;;;;;;;;;;;;4911530;29;20001;-87
2022/09/24 06:59:00;;;;;;;;;;;;;;;;;;4909067;29;19927;-87
2022/09/24 07:01:25;;;;;;;;;;;;;;;;;;4901641;29;19955;-87
2022/09/24 07:03:50;;;;;;;;;;;;;;;;;;4902579;29;19915;-87
2022/09/24 07:06:15;;;;;;;;;;;;;;;;;;4913801;29;19925;-88
2022/09/24 07:08:40;;;;;;;;;;;;;;;;;;4910364;29;19942;-87
2022/09/24 07:11:06;;;;;;;;;;;;;;;;;;4909278;29;20001;-87
2022/09/24 07:13:31;;;;;;;;;;;;;;;;;;4912649;29;19919;-87
2022/09/24 07:15:56;;;;;;;;;;;;;;;;;;4909867;29;20377;-87
2022/09/24 07:18:22;;;;;;;;;;;;;;;;;;4913886;29;19919;-88
2022/09/24 07:20:47;;;;;;;;;;;;;;;;;;4908022;29;20420;-88
2022/09/24 07:23:12;;;;;;;;;;;;;;;;;;4904900;29;20356;-87
2022/09/24 07:25:37;;;;;;;;;;;;;;;;;;4907082;29;19915;-88
2022/09/24 07:28:02;;;;;;;;;;;;;;;;;;4912425;29;19919;-88
2022/09/24 07:30:28;;;;;;;;;;;;;;;;;;4905314;29;19915;-88
2022/09/24 07:32:53;;;;;;;;;;;;;;;;;;4908108;29;20389;-88
2022/09/24 07:35:19;;;;;;;;;;;;;;;;;;4906706;29;19922;-88
2022/09/24 07:37:45;;;;;;;;;;;;;;;;;;4912193;29;19922;-87
2022/09/24 07:40:10;;;;;;;;;;;;;;;;;;4904307;29;19927;-87
2022/09/24 07:42:36;;;;;;;;;;;;;;;;;;4901299;29;19955;-88
2022/09/24 07:45:01;;;;;;;;;;;;;;;;;;4907023;29;19923;-87
2022/09/24 07:47:31;;;;;;;;;;;;;;;;;;4909024;29;19930;-88
2022/09/24 07:49:56;;;;;;;;;;;;;;;;;;4897078;29;19919;-87
2022/09/24 07:52:22;;;;;;;;;;;;;;;;;;4905210;29;19920;-88
2022/09/24 07:54:47;;;;;;;;;;;;;;;;;;4895297;29;20294;-87
2022/09/24 07:57:12;;;;;;;;;;;;;;;;;;4905229;29;19954;-88
2022/09/24 07:59:38;;;;;;;;;;;;;;;;;;4909819;29;19927;-87
2022/09/24 08:02:03;;;;;;;;;;;;;;;;;;4906022;29;19923;-88
2022/09/24 08:04:28;;;;;;;;;;;;;;;;;;4898729;29;19995;-88
2022/09/24 08:06:53;;;;;;;;;;;;;;;;;;4903579;29;19919;-88
2022/09/24 08:09:18;;;;;;;;;;;;;;;;;;4907740;29;19926;-87
2022/09/24 08:11:44;;;;;;;;;;;;;;;;;;4909032;29;19915;-88
2022/09/24 08:14:09;;;;;;;;;;;;;;;;;;4904670;29;19918;-88
2022/09/24 08:16:34;;;;;;;;;;;;;;;;;;4907289;29;19952;-88
2022/09/24 08:18:59;;;;;;;;;;;;;;;;;;4911161;29;19929;-88
2022/09/24 08:21:27;;;;;;;;;;;;;;;;;;4907056;29;20304;-88
2022/09/24 08:23:52;;;;;;;;;;;;;;;;;;4895414;29;19930;-88
2022/09/24 08:26:17;;;;;;;;;;;;;;;;;;4904670;29;19920;-88
2022/09/24 08:28:42;;;;;;;;;;;;;;;;;;4909292;29;20006;-88
2022/09/24 08:31:08;;;;;;;;;;;;;;;;;;4911322;29;19919;-88
2022/09/24 08:33:33;;;;;;;;;;;;;;;;;;4914230;29;20425;-88
2022/09/24 08:35:58;;;;;;;;;;;;;;;;;;4902895;29;19939;-88
2022/09/24 08:38:24;;;;;;;;;;;;;;;;;;4910992;29;19979;-88
2022/09/24 08:40:49;;;;;;;;;;;;;;;;;;4908033;29;19918;-88
2022/09/24 08:43:14;;;;;;;;;;;;;;;;;;4904271;29;19963;-88
2022/09/24 08:48:23;;;;;;;;;;;;;;;;;;4906795;29;19926;-88
2022/09/24 08:50:49;;;;;;;;;;;;;;;;;;4907217;29;19919;-89
2022/09/24 08:53:14;;;;;;;;;;;;;;;;;;4903112;29;19919;-88
2022/09/24 08:55:39;;;;;;;;;;;;;;;;;;4912809;29;19966;-88
2022/09/24 08:58:04;;;;;;;;;;;;;;;;;;4905283;29;19934;-88
2022/09/24 09:00:30;;;;;;;;;;;;;;;;;;4901075;29;19948;-87
2022/09/24 09:02:55;;;;;;;;;;;;;;;;;;4895692;29;20579;-88
2022/09/24 09:05:26;;;;;;;;;;;;;;;;;;4891133;29;20405;-87
2022/09/24 09:07:51;;;;;;;;;;;;;;;;;;4905188;29;19975;-88
2022/09/24 09:10:16;;;;;;;;;;;;;;;;;;4903206;29;20013;-89
2022/09/24 09:12:42;;;;;;;;;;;;;;;;;;4909209;29;20377;-88
2022/09/24 09:15:07;;;;;;;;;;;;;;;;;;4905932;29;19926;-88
2022/09/24 09:17:32;;;;;;;;;;;;;;;;;;4907803;29;20012;-88
2022/09/24 09:20:00;;;;;;;;;;;;;;;;;;4907108;29;19970;-89
2022/09/24 09:22:25;;;;;;;;;;;;;;;;;;4906100;29;20020;-90
2022/09/24 09:24:50;;;;;;;;;;;;;;;;;;4902167;29;20387;-88
2022/09/24 09:27:16;;;;;;;;;;;;;;;;;;4903555;29;19931;-88
2022/09/24 09:29:41;;;;;;;;;;;;;;;;;;4902275;29;19945;-87
2022/09/24 09:32:08;;;;;;;;;;;;;;;;;;4903675;29;19926;-89
2022/09/24 09:34:33;;;;;;;;;;;;;;;;;;4903097;29;19920;-88
2022/09/24 09:36:59;;;;;;;;;;;;;;;;;;4893871;29;19930;-89
2022/09/24 09:39:24;;;;;;;;;;;;;;;;;;4898601;29;20456;-88
2022/09/24 09:41:49;;;;;;;;;;;;;;;;;;4911245;29;19927;-89
2022/09/24 09:44:14;;;;;;;;;;;;;;;;;;4916073;29;19915;-90
2022/09/24 09:46:39;;;;;;;;;;;;;;;;;;4912774;29;19973;-88
2022/09/24 09:49:04;;;;;;;;;;;;;;;;;;4913151;29;19962;-87
2022/09/24 09:51:30;;;;;;;;;;;;;;;;;;4915635;29;19919;-89
2022/09/24 09:53:55;;;;;;;;;;;;;;;;;;4910087;29;20255;-89
2022/09/24 09:56:22;;;;;;;;;;;;;;;;;;4911610;29;19978;-89
2022/09/24 09:58:51;;;;;;;;;;;;;;;;;;4920548;29;19922;-89
2022/09/24 10:01:17;;;;;;;;;;;;;;;;;;4917580;29;19919;-89
2022/09/24 10:03:42;;;;;;;;;;;;;;;;;;4908598;29;19925;-88
2022/09/24 10:06:07;;;;;;;;;;;;;;;;;;4894817;29;20023;-88
2022/09/24 10:11:17;;;;;;;;;;;;;;;;;;4910949;29;20189;-88
2022/09/24 10:13:45;;;;;;;;;;;;;;;;;;4907113;29;19989;-89
2022/09/24 10:16:10;;;;;;;;;;;;;;;;;;4909074;29;19915;-90
2022/09/24 10:18:35;;;;;;;;;;;;;;;;;;4905977;29;20283;-89
2022/09/24 10:21:01;;;;;;;;;;;;;;;;;;4910322;29;20030;-89
2022/09/24 10:23:26;;;;;;;;;;;;;;;;;;4907122;29;19919;-89
2022/09/24 10:25:52;;;;;;;;;;;;;;;;;;4907742;29;19974;-90
2022/09/24 10:31:01;;;;;;;;;;;;;;;;;;4902783;29;19930;-87
2022/09/24 10:33:26;;;;;;;;;;;;;;;;;;4911429;29;19919;-90
2022/09/24 10:35:51;;;;;;;;;;;;;;;;;;4911542;29;19930;-89
2022/09/24 10:38:19;;;;;;;;;;;;;;;;;;4906900;29;19923;-88
2022/09/24 10:40:44;;;;;;;;;;;;;;;;;;4903554;29;19925;-87
2022/09/24 10:43:10;;;;;;;;;;;;;;;;;;4911810;29;19915;-89
2022/09/24 10:45:35;;;;;;;;;;;;;;;;;;4909796;29;20150;-88
2022/09/24 10:48:00;;;;;;;;;;;;;;;;;;4905968;29;19923;-90
2022/09/24 10:50:25;;;;;;;;;;;;;;;;;;4909330;29;19926;-89
2022/09/24 10:52:50;;;;;;;;;;;;;;;;;;4918236;29;19919;-90
2022/09/24 10:55:15;;;;;;;;;;;;;;;;;;4911832;29;19947;-89
2022/09/24 10:57:41;;;;;;;;;;;;;;;;;;4905457;29;20028;-89
2022/09/24 11:00:06;;;;;;;;;;;;;;;;;;4913615;29;19915;-89
2022/09/24 11:02:31;;;;;;;;;;;;;;;;;;4913223;29;20293;-90
2022/09/24 11:04:56;;;;;;;;;;;;;;;;;;4913171;29;19923;-90
2022/09/24 13:06:05;;;;;;;;;;;;;;;;;;4938061;29;19930;-90
2022/09/24 13:08:31;;;;;;;;;;;;;;;;;;4953265;29;19918;-91
2022/09/24 13:10:58;;;;;;;;;;;;;;;;;;4935206;29;19910;-92
2022/09/24 13:13:24;;;;;;;;;;;;;;;;;;4933497;29;20013;-93
2022/09/24 13:15:49;;;;;;;;;;;;;;;;;;4951309;23;19927;-92
2022/09/24 13:18:15;;;;;;;;;;;;;;;;;;4939026;29;19974;-92
2022/09/24 13:20:40;;;;;;;;;;;;;;;;;;4939827;29;19922;-91
2022/09/24 13:23:05;;;;;;;;;;;;;;;;;;4934417;29;19915;-91
2022/09/24 13:25:30;;;;;;;;;;;;;;;;;;4933872;29;20382;-90
2022/09/24 13:27:55;;;;;;;;;;;;;;;;;;4931548;29;19924;-91
2022/09/24 13:30:21;;;;;;;;;;;;;;;;;;4935966;29;20349;-91
2022/09/24 13:32:46;;;;;;;;;;;;;;;;;;4923449;29;19918;-92
2022/09/24 13:35:11;;;;;;;;;;;;;;;;;;4934199;29;19911;-90
2022/09/24 13:37:36;;;;;;;;;;;;;;;;;;4937723;29;19915;-90
2022/09/24 13:40:01;;;;;;;;;;;;;;;;;;4941278;29;19964;-89
2022/09/24 13:42:26;;;;;;;;;;;;;;;;;;4931033;29;19931;-90
2022/09/24 13:44:52;;;;;;;;;;;;;;;;;;4936855;29;19915;-91
2022/09/24 13:47:17;;;;;;;;;;;;;;;;;;4929830;29;19942;-90
2022/09/24 13:49:42;;;;;;;;;;;;;;;;;;4929095;29;20395;-90
2022/09/24 13:52:07;;;;;;;;;;;;;;;;;;4931961;29;21735;-91
2022/09/24 13:54:33;;;;;;;;;;;;;;;;;;4931804;29;19915;-90
2022/09/24 13:56:58;;;;;;;;;;;;;;;;;;4935139;29;19915;-89
2022/09/24 13:59:24;;;;;;;;;;;;;;;;;;4928297;29;19923;-90
2022/09/24 14:01:49;;;;;;;;;;;;;;;;;;4931681;29;19942;-91
2022/09/24 14:04:14;;;;;;;;;;;;;;;;;;4930549;29;19925;-89
2022/09/24 14:06:39;;;;;;;;;;;;;;;;;;4927307;29;20373;-90
2022/09/24 14:09:04;;;;;;;;;;;;;;;;;;4933070;29;20005;-89
2022/09/24 14:11:30;;;;;;;;;;;;;;;;;;4930626;29;19917;-89
2022/09/24 14:13:56;;;;;;;;;;;;;;;;;;4938439;29;19925;-90
2022/09/24 14:16:21;;;;;;;;;;;;;;;;;;4934348;29;19919;-90
2022/09/24 14:18:46;;;;;;;;;;;;;;;;;;4933444;29;19919;-88
2022/09/24 14:21:11;;;;;;;;;;;;;;;;;;4926710;29;20606;-90
2022/09/24 14:23:37;;;;;;;;;;;;;;;;;;4919739;29;20307;-90
2022/09/24 14:26:02;;;;;;;;;;;;;;;;;;4921282;29;20381;-91
2022/09/24 14:28:31;;;;;;;;;;;;;;;;;;4920116;29;19930;-89
2022/09/24 14:30:56;;;;;;;;;;;;;;;;;;4918078;29;20376;-90
2022/09/24 14:33:24;;;;;;;;;;;;;;;;;;4923191;29;19919;-90
2022/09/24 14:35:49;;;;;;;;;;;;;;;;;;4925345;29;19930;-90
2022/09/24 14:38:14;;;;;;;;;;;;;;;;;;4929085;29;19926;-91
2022/09/24 14:40:39;;;;;;;;;;;;;;;;;;4909604;29;19970;-91
2022/09/24 14:43:05;;;;;;;;;;;;;;;;;;4920902;29;19927;-91
2022/09/24 14:45:33;;;;;;;;;;;;;;;;;;4916980;29;20397;-91
2022/09/24 14:47:58;;;;;;;;;;;;;;;;;;4924407;29;20001;-91
2022/09/24 14:50:23;;;;;;;;;;;;;;;;;;4920419;29;20017;-91
2022/09/24 14:52:54;;;;;;;;;;;;;;;;;;4925782;29;19915;-92
2022/09/24 15:01:14;;;;;;;;;;;;;;;;;;;;;
2022/09/24 15:03:53;;;;;;;;;;;;;;;;;;4931550;29;19923;-89
2022/09/24 15:06:27;;;;;;;;;;;;;;;;;;4935407;29;19915;-89
2022/09/24 15:08:52;;;;;;;;;;;;;;;;;;4939466;29;19958;-89
2022/09/24 15:11:17;;;;;;;;;;;;;;;;;;4933952;29;19926;-89
2022/09/24 15:13:43;;;;;;;;;;;;;;;;;;4936891;29;20004;-89
2022/09/24 15:16:08;;;;;;;;;;;;;;;;;;4933769;29;19926;-88
2022/09/24 15:18:36;;;;;;;;;;;;;;;;;;4934482;29;19929;-87
2022/09/24 15:21:05;;;;;;;;;;;;;;;;;;4925949;29;19942;-88
2022/09/24 15:23:30;;;;;;;;;;;;;;;;;;4927914;29;20276;-89
2022/09/24 15:25:55;;;;;;;;;;;;;;;;;;4928532;29;19923;-88
2022/09/24 15:28:25;;;;;;;;;;;;;;;;;;4930375;29;19915;-88
2022/09/24 15:30:51;;;;;;;;;;;;;;;;;;4930112;29;20007;-87
2022/09/24 15:33:17;;;;;;;;;;;;;;;;;;4928390;29;20031;-87
2022/09/24 15:35:42;;;;;;;;;;;;;;;;;;4929554;29;19915;-87
2022/09/24 15:38:08;;;;;;;;;;;;;;;;;;4926042;29;20444;-89
2022/09/24 15:40:35;;;;;;;;;;;;;;;;;;4929699;29;19929;-88
2022/09/24 15:43:01;;;;;;;;;;;;;;;;;;4931491;29;19915;-89
2022/09/24 15:45:26;;;;;;;;;;;;;;;;;;4937351;29;19915;-88
2022/09/24 15:47:51;;;;;;;;;;;;;;;;;;4923144;29;19915;-87
2022/09/24 15:50:17;;;;;;;;;;;;;;;;;;4936672;29;19915;-88
2022/09/24 15:52:42;;;;;;;;;;;;;;;;;;4929085;29;19923;-88
2022/09/24 15:55:07;;;;;;;;;;;;;;;;;;4930396;29;19962;-88
2022/09/24 15:57:32;;;;;;;;;;;;;;;;;;4923045;29;19923;-89
2022/09/24 15:59:57;;;;;;;;;;;;;;;;;;4934204;29;19927;-88
2022/09/24 16:02:23;;;;;;;;;;;;;;;;;;4931907;29;19921;-88
2022/09/24 16:04:48;;;;;;;;;;;;;;;;;;4925121;29;19930;-88
2022/09/24 16:07:13;;;;;;;;;;;;;;;;;;4929589;29;20006;-88
2022/09/24 16:09:38;;;;;;;;;;;;;;;;;;4933842;29;19974;-88
2022/09/24 16:12:03;;;;;;;;;;;;;;;;;;4928376;29;19921;-88
2022/09/24 16:14:28;;;;;;;;;;;;;;;;;;4928180;29;19918;-87
2022/09/24 16:16:54;;;;;;;;;;;;;;;;;;4928592;29;19963;-88
2022/09/24 16:20:20;;;;;;;;;;;;;;;;;;4927976;29;20396;-87
2022/09/24 16:22:16;;;;;;;;;;;;;;;;;;4924848;29;19919;-89
2022/09/24 16:32:24;;;;;;;;;;;;;;;;;;4928285;29;19961;-85
2022/09/24 16:35:09;;;;;;;;;;;;;;;;;;4922929;29;20385;-86
2022/09/24 16:40:34;;;;;;;;;;;;;;;;;;4904273;29;19919;-86
2022/09/24 16:45:52;;;;;;;;;;;;;;;;;;4902137;29;19966;-84
2022/09/24 16:48:20;;;;;;;;;;;;;;;;;;4918557;29;19923;-86
2022/09/24 16:50:48;;;;;;;;;;;;;;;;;;4916545;29;19922;-85
2022/09/24 16:56:08;;;;;;;;;;;;;;;;;;4905950;29;19919;-86
2022/09/24 16:58:33;;;;;;;;;;;;;;;;;;4917175;29;20304;-86
2022/09/24 17:18:02;;;;;;;;;;;;;;;;;;;;;
2022/09/24 17:20:40;;;;;;;;;;;;;;;;;;;;;
2022/09/24 17:37:18;;;;;;;;;;;;;;;;;;4836362;29;20082;-84
2022/09/24 17:39:43;;;;;;;;;;;;;;;;;;4900292;29;20481;-85
2022/09/24 17:42:13;;;;;;;;;;;;;;;;;;4911813;29;19954;-85
2022/09/24 17:44:44;;;;;;;;;;;;;;;;;;4925174;29;20529;-85
2022/09/24 17:47:17;;;;;;;;;;;;;;;;;;4927834;29;19919;-84
2022/09/24 17:49:45;;;;;;;;;;;;;;;;;;4930038;29;19949;-85
2022/09/24 17:55:07;;;;;;;;;;;;;;;;;;4907486;29;20429;-85
2022/09/24 18:00:16;;;;;;;;;;;;;;;;;;4931857;29;20301;-85
2022/09/24 18:05:43;;;;;;;;;;;;;;;;;;4882764;29;19922;-85
2022/09/24 18:08:11;;;;;;;;;;;;;;;;;;4923125;29;19967;-85
2022/09/24 18:10:39;;;;;;;;;;;;;;;;;;4928685;29;19998;-85
2022/09/24 18:13:04;;;;;;;;;;;;;;;;;;4923338;29;20015;-84
2022/09/24 18:15:30;;;;;;;;;;;;;;;;;;4921833;29;20038;-85
2022/09/24 18:17:55;;;;;;;;;;;;;;;;;;4921982;29;20014;-85
2022/09/24 18:20:20;;;;;;;;;;;;;;;;;;4917169;29;19926;-85
2022/09/24 18:22:45;;;;;;;;;;;;;;;;;;4918062;29;20075;-85
2022/09/24 18:25:11;;;;;;;;;;;;;;;;;;4920016;29;19927;-85
2022/09/24 18:27:37;;;;;;;;;;;;;;;;;;4919628;29;19996;-85
2022/09/24 18:30:02;;;;;;;;;;;;;;;;;;4921081;29;20025;-85
2022/09/24 18:32:28;;;;;;;;;;;;;;;;;;4919456;29;20432;-84
2022/09/24 18:34:53;;;;;;;;;;;;;;;;;;4918973;29;20445;-85
2022/09/24 18:37:19;;;;;;;;;;;;;;;;;;4921659;29;20014;-85
2022/09/24 18:39:44;;;;;;;;;;;;;;;;;;4920616;29;20003;-85
2022/09/24 18:42:09;;;;;;;;;;;;;;;;;;4919603;29;19919;-84
2022/09/24 18:44:34;;;;;;;;;;;;;;;;;;4919595;29;20382;-85
2022/09/24 18:46:59;;;;;;;;;;;;;;;;;;4922037;29;20456;-85
2022/09/24 18:49:25;;;;;;;;;;;;;;;;;;4919681;29;19944;-85
2022/09/24 18:51:50;;;;;;;;;;;;;;;;;;4917686;29;20482;-85
2022/09/24 18:54:17;;;;;;;;;;;;;;;;;;4917670;29;19915;-85
2022/09/24 18:56:42;;;;;;;;;;;;;;;;;;4918952;29;20337;-85
2022/09/24 18:59:07;;;;;;;;;;;;;;;;;;4920858;29;19922;-85
2022/09/24 19:01:32;;;;;;;;;;;;;;;;;;4916213;29;19919;-85
2022/09/24 19:03:58;;;;;;;;;;;;;;;;;;4922628;29;19914;-85
2022/09/24 19:06:24;;;;;;;;;;;;;;;;;;4916795;29;20238;-85
2022/09/24 19:08:49;;;;;;;;;;;;;;;;;;4920157;29;19919;-85
2022/09/24 19:11:15;;;;;;;;;;;;;;;;;;4914840;29;20309;-85
2022/09/24 19:13:40;;;;;;;;;;;;;;;;;;4905635;29;19919;-85
2022/09/24 19:16:05;;;;;;;;;;;;;;;;;;4927660;29;19962;-87
2022/09/24 19:18:30;;;;;;;;;;;;;;;;;;4929696;29;20289;-87
2022/09/24 19:20:55;;;;;;;;;;;;;;;;;;4935387;29;19910;-86
2022/09/24 19:23:20;;;;;;;;;;;;;;;;;;4951716;29;19911;-86
2022/09/24 19:25:46;;;;;;;;;;;;;;;;;;4950795;29;19910;-88
2022/09/24 19:28:11;;;;;;;;;;;;;;;;;;4933765;29;20480;-86
2022/09/24 19:30:36;;;;;;;;;;;;;;;;;;4915292;29;19971;-90
2022/09/24 19:33:01;;;;;;;;;;;;;;;;;;4915828;29;19922;-87
2022/09/24 19:35:26;;;;;;;;;;;;;;;;;;4915521;29;19915;-87
2022/09/24 19:37:52;;;;;;;;;;;;;;;;;;4941515;29;19958;-88
2022/09/24 19:40:18;;;;;;;;;;;;;;;;;;4953225;29;19978;-87
2022/09/24 19:42:43;;;;;;;;;;;;;;;;;;4939366;29;19997;-90
2022/09/24 19:45:09;;;;;;;;;;;;;;;;;;4948554;29;20005;-86
2022/09/24 19:47:34;;;;;;;;;;;;;;;;;;4942758;29;19914;-88
2022/09/24 19:49:59;;;;;;;;;;;;;;;;;;4921950;29;19918;-88
2022/09/24 19:52:24;;;;;;;;;;;;;;;;;;4934055;29;19922;-87
2022/09/24 19:54:49;;;;;;;;;;;;;;;;;;4933693;29;19998;-88
2022/09/24 19:57:15;;;;;;;;;;;;;;;;;;4938575;29;19918;-87